createdAt,value
2019-04-25T09:28:57.882Z,975.9
2019-04-25T09:29:59.203Z,976.4
2019-04-25T09:31:00.498Z,976.2
2019-04-25T09:32:01.825Z,976.1
2019-04-25T09:33:05.363Z,975.9
2019-04-25T09:34:06.710Z,975.9
2019-04-25T09:35:08.485Z,975.9
2019-04-25T09:36:09.806Z,975.9
2019-04-25T09:37:11.385Z,975.8
2019-04-25T09:38:14.069Z,975.5
2019-04-25T09:39:18.355Z,975.7
2019-04-25T09:40:20.044Z,975.7
2019-04-25T09:41:21.340Z,975.7
2019-04-25T09:42:24.553Z,975.7
2019-04-25T09:43:25.863Z,975.6
2019-04-25T09:44:27.520Z,975.5
2019-04-25T09:45:29.032Z,975.6
2019-04-25T09:46:30.323Z,976
2019-04-25T09:47:31.634Z,975.8
2019-04-25T09:48:34.402Z,975.6
2019-04-25T09:49:39.091Z,975.4
2019-04-25T09:50:41.445Z,975.5
2019-04-25T09:51:45.709Z,975.4
2019-04-25T09:52:48.705Z,975.3
2019-04-25T09:53:53.938Z,975.4
2019-04-25T09:54:55.496Z,975.5
2019-04-25T09:56:01.492Z,975.6
2019-04-25T09:57:05.596Z,975.6
2019-04-25T09:58:07.343Z,975.5
2019-04-25T09:59:11.360Z,975.6
2019-04-25T10:00:16.208Z,975.5
2019-04-25T10:01:17.630Z,975.5
2019-04-25T10:02:18.926Z,975.4
2019-04-25T10:03:20.244Z,975.3
2019-04-25T10:04:23.744Z,975.3
2019-04-25T10:05:26.265Z,975.1
2019-04-25T10:06:27.552Z,975.2
2019-04-25T10:07:28.866Z,975.3
2019-04-25T10:08:30.366Z,975.3
2019-04-25T10:09:33.598Z,975.3
2019-04-25T10:10:40.446Z,975.1
2019-04-25T10:11:45.119Z,975.3
2019-04-25T10:12:47.438Z,975.3
2019-04-25T10:13:48.804Z,975.2
2019-04-25T10:14:54.235Z,975.2
2019-04-25T10:15:58.482Z,975.3
2019-04-25T10:16:59.791Z,975.4
2019-04-25T10:18:01.077Z,975.4
2019-04-25T10:19:04.573Z,975.3
2019-04-25T10:20:06.645Z,975.3
2019-04-25T10:21:08.740Z,975.2
2019-04-25T10:22:13.637Z,975.3
2019-04-25T10:23:16.412Z,975.3
2019-04-25T10:24:17.732Z,975.4
2019-04-25T10:25:19.390Z,975.2
2019-04-25T10:26:20.772Z,975.2
2019-04-25T10:27:22.154Z,975.2
2019-04-25T10:28:26.801Z,975.2
2019-04-25T10:29:47.112Z,975.2
2019-04-25T10:30:50.624Z,975.2
2019-04-25T10:31:51.988Z,975.4
2019-04-25T10:32:55.758Z,975.4
2019-04-25T10:33:57.169Z,975.5
2019-04-25T10:34:59.598Z,975.3
2019-04-25T10:36:04.834Z,975.2
2019-04-25T10:37:10.874Z,975.3
2019-04-25T10:38:13.520Z,975.1
2019-04-25T10:39:15.626Z,975.2
2019-04-25T10:40:17.238Z,975.3
2019-04-25T10:41:18.597Z,975.3
2019-04-25T10:42:19.926Z,975.2
2019-04-25T10:43:23.893Z,975
2019-04-25T10:44:25.396Z,974.8
2019-04-25T10:45:27.160Z,975.1
2019-04-25T10:46:28.528Z,975.2
2019-04-25T10:47:33.387Z,975
2019-04-25T10:48:35.516Z,974.8
2019-04-25T10:49:36.823Z,974.7
2019-04-25T10:50:38.136Z,974.7
2019-04-25T10:51:39.882Z,974.7
2019-04-25T10:52:42.263Z,974.7
2019-04-25T10:53:46.998Z,974.7
2019-04-25T10:54:48.633Z,974.7
2019-04-25T10:55:52.724Z,974.6
2019-04-25T10:56:56.338Z,974.6
2019-04-25T10:58:00.116Z,974.7
2019-04-25T10:59:01.462Z,974.6
2019-04-25T11:00:09.748Z,974.7
2019-04-25T11:01:14.906Z,974.6
2019-04-25T11:02:16.779Z,974.6
2019-04-25T11:03:18.434Z,974.5
2019-04-25T11:04:22.153Z,974.4
2019-04-25T11:05:24.648Z,974.3
2019-04-25T11:06:25.951Z,974.4
2019-04-25T11:07:27.240Z,974.4
2019-04-25T11:08:28.920Z,974.4
2019-04-25T11:09:30.243Z,974.5
2019-04-25T11:10:35.370Z,974.5
2019-04-25T11:11:38.800Z,974.5
2019-04-25T11:12:41.349Z,974.5
2019-04-25T11:13:46.632Z,974.4
2019-04-25T11:14:48.725Z,974.4
2019-04-25T11:15:50.802Z,974.3
2019-04-25T11:16:54.659Z,974.2
2019-04-25T11:17:56.456Z,974.2
2019-04-25T11:18:59.726Z,974.2
2019-04-25T11:20:01.034Z,974.2
2019-04-25T11:21:06.020Z,974.1
2019-04-25T11:22:07.630Z,974.1
2019-04-25T11:23:13.799Z,974
2019-04-25T11:24:18.294Z,974.1
2019-04-25T11:25:19.762Z,974.2
2019-04-25T11:26:21.078Z,974.2
2019-04-25T11:27:23.942Z,974.1
2019-04-25T11:28:25.616Z,974.1
2019-04-25T11:29:28.430Z,974.1
2019-04-25T11:30:30.025Z,974
2019-04-25T11:31:31.298Z,974
2019-04-25T11:32:34.596Z,973.9
2019-04-25T11:33:35.890Z,974.1
2019-04-25T11:34:38.599Z,974.2
2019-04-25T11:35:40.021Z,974.1
2019-04-25T11:36:41.605Z,974
2019-04-25T11:37:43.997Z,973.9
2019-04-25T11:38:46.230Z,974
2019-04-25T11:39:47.992Z,973.9
2019-04-25T11:40:51.481Z,974
2019-04-25T11:41:55.330Z,974.1
2019-04-25T11:42:56.898Z,974
2019-04-25T11:44:03.302Z,974
2019-04-25T11:45:06.005Z,973.9
2019-04-25T11:46:08.459Z,973.9
2019-04-25T11:47:09.784Z,973.9
2019-04-25T11:48:11.082Z,973.9
2019-04-25T11:49:15.220Z,973.9
2019-04-25T11:50:16.662Z,974
2019-04-25T11:51:17.991Z,974
2019-04-25T11:52:30.192Z,973.9
2019-04-25T11:53:32.332Z,973.9
2019-04-25T11:54:36.394Z,973.8
2019-04-25T11:55:37.766Z,973.8
2019-04-25T11:56:39.069Z,973.7
2019-04-25T11:57:42.507Z,973.8
2019-04-25T11:58:47.983Z,973.8
2019-04-25T11:59:52.326Z,973.8
2019-04-25T12:00:57.888Z,973.7
2019-04-25T12:01:59.441Z,973.6
2019-04-25T12:03:00.731Z,973.6
2019-04-25T12:04:03.938Z,973.6
2019-04-25T12:05:07.579Z,973.6
2019-04-25T12:06:11.891Z,973.3
2019-04-25T12:07:16.087Z,973.4
2019-04-25T12:08:17.383Z,973.5
2019-04-25T12:09:23.884Z,973.4
2019-04-25T12:10:26.374Z,973.4
2019-04-25T12:11:27.728Z,973.4
2019-04-25T12:12:29.015Z,973.4
2019-04-25T12:13:30.394Z,973.3
2019-04-25T12:14:31.693Z,973.3
2019-04-25T12:15:36.619Z,973.4
2019-04-25T12:16:37.925Z,973.3
2019-04-25T12:17:45.544Z,973.2
2019-04-25T12:18:50.256Z,973.2
2019-04-25T12:19:53.528Z,973.3
2019-04-25T12:20:58.276Z,973.1
2019-04-25T12:21:59.601Z,973.3
2019-04-25T12:23:10.540Z,973.2
2019-04-25T12:24:13.654Z,973.3
2019-04-25T12:25:15.778Z,973.3
2019-04-25T12:26:17.091Z,973.2
2019-04-25T12:27:18.440Z,973.3
2019-04-25T12:28:19.979Z,973.2
2019-04-25T12:29:21.587Z,973.3
2019-04-25T12:30:40.145Z,973.2
2019-04-25T12:31:41.596Z,973.2
2019-04-25T12:32:45.720Z,973.1
2019-04-25T12:33:50.783Z,972.9
2019-04-25T12:34:52.427Z,973.2
2019-04-25T12:35:55.319Z,973.3
2019-04-25T12:36:58.395Z,973.2
2019-04-25T12:37:59.741Z,973.2
2019-04-25T12:39:03.311Z,973.2
2019-04-25T12:40:07.299Z,973.2
2019-04-25T12:41:08.593Z,973.2
2019-04-25T12:42:10.027Z,973.3
2019-04-25T12:43:13.696Z,973.2
2019-04-25T12:44:15.269Z,973.2
2019-04-25T12:45:16.571Z,973.2
2019-04-25T12:46:17.874Z,973.3
2019-04-25T12:47:20.451Z,973.2
2019-04-25T12:48:23.401Z,973.2
2019-04-25T12:49:26.500Z,973.2
2019-04-25T12:50:27.787Z,973.1
2019-04-25T12:51:29.140Z,973.2
2019-04-25T12:52:30.575Z,973.1
2019-04-25T12:53:33.365Z,973.1
2019-04-25T12:54:35.157Z,973.3
2019-04-25T12:55:37.507Z,973.1
2019-04-25T12:56:39.821Z,973.1
2019-04-25T12:57:41.127Z,973.1
2019-04-25T12:58:47.851Z,973.1
2019-04-25T12:59:49.926Z,973.2
2019-04-25T13:00:58.556Z,973.1
2019-04-25T13:02:02.266Z,973.1
2019-04-25T13:03:11.066Z,973.1
2019-04-25T13:04:13.725Z,973.1
2019-04-25T13:05:15.005Z,973.1
2019-04-25T13:06:16.830Z,973.1
2019-04-25T13:07:20.443Z,973.1
2019-04-25T13:08:21.737Z,973.1
2019-04-25T13:09:23.089Z,973.2
2019-04-25T13:10:24.435Z,973.1
2019-04-25T13:11:27.902Z,973.1
2019-04-25T13:12:29.189Z,973.1
2019-04-25T13:13:30.487Z,973
2019-04-25T13:14:31.831Z,973.1
2019-04-25T13:15:34.169Z,973
2019-04-25T13:16:35.465Z,973
2019-04-25T13:17:41.623Z,973.1
2019-04-25T13:18:42.936Z,973
2019-04-25T13:19:45.151Z,973
2019-04-25T13:20:47.038Z,973
2019-04-25T13:21:48.352Z,973
2019-04-25T13:22:52.925Z,973.1
2019-04-25T13:23:56.671Z,973
2019-04-25T13:24:59.427Z,973
2019-04-25T13:26:04.256Z,973
2019-04-25T13:27:07.631Z,972.8
2019-04-25T13:28:11.207Z,973.1
2019-04-25T13:29:12.499Z,973
2019-04-25T13:30:15.131Z,973
2019-04-25T13:31:16.465Z,973.1
2019-04-25T13:32:17.801Z,973.1
2019-04-25T13:33:27.937Z,973
2019-04-25T13:34:37.347Z,972.9
2019-04-25T13:35:43.344Z,973
2019-04-25T13:36:48.746Z,973
2019-04-25T13:37:53.883Z,973
2019-04-25T13:38:55.270Z,973
2019-04-25T13:39:57.401Z,973
2019-04-25T13:41:04.823Z,972.9
2019-04-25T13:42:11.891Z,973
2019-04-25T13:43:13.447Z,973
2019-04-25T13:44:17.186Z,973
2019-04-25T13:45:18.656Z,973
2019-04-25T13:46:30.321Z,973
2019-04-25T13:47:32.863Z,972.9
2019-04-25T13:48:36.503Z,973
2019-04-25T13:49:38.239Z,972.9
2019-04-25T13:50:39.507Z,972.8
2019-04-25T13:51:40.827Z,972.8
2019-04-25T13:52:43.856Z,972.8
2019-04-25T13:53:45.190Z,972.8
2019-04-25T13:54:51.385Z,972.7
2019-04-25T13:55:57.835Z,972.7
2019-04-25T13:56:59.176Z,972.7
2019-04-25T13:58:00.751Z,972.7
2019-04-25T13:59:02.045Z,972.6
2019-04-25T14:00:04.827Z,972.6
2019-04-25T14:01:17.280Z,972.6
2019-04-25T14:02:20.260Z,972.7
2019-04-25T14:03:22.937Z,972.7
2019-04-25T14:04:28.030Z,972.7
2019-04-25T14:05:30.306Z,972.8
2019-04-25T14:06:32.427Z,972.8
2019-04-25T14:07:33.845Z,972.8
2019-04-25T14:08:35.158Z,972.8
2019-04-25T14:09:36.494Z,972.8
2019-04-25T14:10:37.944Z,972.7
2019-04-25T14:11:39.265Z,972.5
2019-04-25T14:12:40.931Z,972.7
2019-04-25T14:13:42.355Z,972.7
2019-04-25T14:14:44.893Z,972.7
2019-04-25T14:15:47.289Z,972.6
2019-04-25T14:16:48.587Z,972.6
2019-04-25T14:17:51.129Z,972.7
2019-04-25T14:18:52.740Z,972.7
2019-04-25T14:19:57.567Z,972.6
2019-04-25T14:21:01.211Z,972.5
2019-04-25T14:22:04.143Z,972.6
2019-04-25T14:23:05.929Z,972.6
2019-04-25T14:24:19.588Z,972.5
2019-04-25T14:25:21.335Z,972.5
2019-04-25T14:26:23.678Z,972.5
2019-04-25T14:27:27.747Z,972.4
2019-04-25T14:28:32.204Z,972.4
2019-04-25T14:29:33.496Z,972.3
2019-04-25T14:30:36.915Z,972
2019-04-25T14:31:48.458Z,972.1
2019-04-25T14:32:49.880Z,972.3
2019-04-25T14:33:52.491Z,972.2
2019-04-25T14:34:55.255Z,972.2
2019-04-25T14:35:56.918Z,972.1
2019-04-25T14:36:58.217Z,972.1
2019-04-25T14:37:59.532Z,972.1
2019-04-25T14:39:00.865Z,972.1
2019-04-25T14:40:03.857Z,972.1
2019-04-25T14:41:05.434Z,972.1
2019-04-25T14:42:07.622Z,972.1
2019-04-25T14:43:11.627Z,972.1
2019-04-25T14:44:14.184Z,972.1
2019-04-25T14:45:15.645Z,972.1
2019-04-25T14:46:18.171Z,972
2019-04-25T14:47:19.765Z,971.9
2019-04-25T14:48:21.047Z,971.9
2019-04-25T14:49:24.024Z,971.8
2019-04-25T14:50:27.932Z,971.8
2019-04-25T14:51:29.265Z,971.8
2019-04-25T14:52:30.593Z,971.8
2019-04-25T14:53:35.168Z,971.7
2019-04-25T14:54:37.737Z,971.8
2019-04-25T14:55:41.449Z,971.7
2019-04-25T14:56:42.747Z,971.7
2019-04-25T14:57:44.269Z,971.7
2019-04-25T14:58:45.881Z,971.7
2019-04-25T14:59:47.213Z,971.7
2019-04-25T15:00:48.547Z,971.5
2019-04-25T15:01:51.976Z,971.7
2019-04-25T15:02:54.965Z,971.6
2019-04-25T15:04:00.327Z,971.3
2019-04-25T15:05:08.083Z,971.6
2019-04-25T15:06:12.806Z,971.5
2019-04-25T15:07:14.162Z,971.6
2019-04-25T15:08:15.490Z,971.5
2019-04-25T15:09:16.782Z,971.5
2019-04-25T15:10:18.112Z,971.5
2019-04-25T15:11:20.272Z,971.5
2019-04-25T15:12:29.362Z,971.5
2019-04-25T15:13:31.791Z,971.4
2019-04-25T15:14:36.956Z,971.4
2019-04-25T15:15:38.285Z,971.5
2019-04-25T15:16:43.641Z,971.4
2019-04-25T15:17:47.538Z,971.5
2019-04-25T15:18:49.211Z,971.4
2019-04-25T15:19:50.625Z,971.5
2019-04-25T15:20:52.945Z,971.5
2019-04-25T15:21:54.388Z,971.4
2019-04-25T15:22:55.685Z,971.4
2019-04-25T15:24:01.266Z,971.5
2019-04-25T15:25:02.593Z,971.5
2019-04-25T15:26:06.958Z,971.4
2019-04-25T15:27:10.998Z,971.4
2019-04-25T15:28:12.299Z,971.3
2019-04-25T15:29:16.688Z,971.3
2019-04-25T15:30:17.966Z,971.3
2019-04-25T15:31:19.344Z,971.3
2019-04-25T15:32:20.661Z,971.2
2019-04-25T15:33:22.038Z,971.2
2019-04-25T15:34:23.389Z,971.2
2019-04-25T15:35:25.831Z,971.2
2019-04-25T15:36:27.306Z,971.2
2019-04-25T15:37:28.598Z,971.2
2019-04-25T15:38:29.922Z,971.2
2019-04-25T15:39:36.102Z,971.1
2019-04-25T15:40:37.393Z,971.1
2019-04-25T15:41:38.764Z,971
2019-04-25T15:42:40.180Z,971.1
2019-04-25T15:43:41.481Z,971
2019-04-25T15:44:46.251Z,970.9
2019-04-25T15:45:48.405Z,971
2019-04-25T15:46:49.742Z,971
2019-04-25T15:47:52.267Z,970.7
2019-04-25T15:48:55.772Z,970.9
2019-04-25T15:49:57.064Z,970.9
2019-04-25T15:50:58.394Z,970.9
2019-04-25T15:52:08.416Z,970.8
2019-04-25T15:53:09.757Z,970.9
2019-04-25T15:54:11.351Z,970.8
2019-04-25T15:55:13.314Z,970.8
2019-04-25T15:56:15.989Z,970.8
2019-04-25T15:57:21.896Z,970.8
2019-04-25T15:58:23.200Z,970.9
2019-04-25T15:59:27.349Z,970.9
2019-04-25T16:00:31.335Z,970.8
2019-04-25T16:01:35.432Z,970.9
2019-04-25T16:02:38.986Z,970.9
2019-04-25T16:03:45.610Z,970.8
2019-04-25T16:04:46.882Z,970.8
2019-04-25T16:05:51.222Z,970.8
2019-04-25T16:06:52.759Z,970.7
2019-04-25T16:07:56.449Z,970.7
2019-04-25T16:09:02.730Z,970.7
2019-04-25T16:10:07.780Z,970.6
2019-04-25T16:11:09.136Z,970.6
2019-04-25T16:12:11.318Z,970.7
2019-04-25T16:13:13.058Z,970.7
2019-04-25T16:14:14.424Z,970.5
2019-04-25T16:15:15.708Z,970.6
2019-04-25T16:16:17.066Z,970.6
2019-04-25T16:17:18.363Z,970.6
2019-04-25T16:18:19.798Z,970.6
2019-04-25T16:19:21.074Z,970.5
2019-04-25T16:20:22.396Z,970.6
2019-04-25T16:21:23.676Z,970.6
2019-04-25T16:22:25.002Z,970.6
2019-04-25T16:23:29.981Z,970.6
2019-04-25T16:24:32.922Z,970.4
2019-04-25T16:25:35.403Z,970.6
2019-04-25T16:26:36.794Z,970.6
2019-04-25T16:27:39.736Z,970.5
2019-04-25T16:28:41.040Z,970.6
2019-04-25T16:29:42.629Z,970.6
2019-04-25T16:30:43.969Z,970.6
2019-04-25T16:31:47.174Z,970.5
2019-04-25T16:32:48.464Z,970.4
2019-04-25T16:33:49.799Z,970.6
2019-04-25T16:34:56.678Z,970.7
2019-04-25T16:35:59.780Z,970.6
2019-04-25T16:37:05.924Z,970.5
2019-04-25T16:38:07.303Z,970.5
2019-04-25T16:39:08.727Z,970.6
2019-04-25T16:40:10.062Z,970.7
2019-04-25T16:41:11.381Z,970.5
2019-04-25T16:42:13.095Z,970.6
2019-04-25T16:43:14.500Z,970.5
2019-04-25T16:44:18.270Z,970.6
2019-04-25T16:45:19.612Z,970.7
2019-04-25T16:46:20.951Z,970.6
2019-04-25T16:47:22.395Z,970.5
2019-04-25T16:48:26.574Z,970.5
2019-04-25T16:49:27.986Z,970.5
2019-04-25T16:50:31.644Z,970.6
2019-04-25T16:51:33.900Z,970.7
2019-04-25T16:52:35.841Z,970.7
2019-04-25T16:53:40.044Z,970.3
2019-04-25T16:54:42.455Z,970.5
2019-04-25T16:55:50.399Z,970.5
2019-04-25T16:56:51.700Z,970.6
2019-04-25T16:57:55.466Z,970.6
2019-04-25T16:58:56.888Z,970.6
2019-04-25T16:59:58.253Z,970.6
2019-04-25T17:01:00.856Z,970.6
2019-04-25T17:02:03.898Z,970.6
2019-04-25T17:03:05.308Z,970.6
2019-04-25T17:04:06.751Z,970.5
2019-04-25T17:05:10.384Z,970.5
2019-04-25T17:06:11.710Z,970.4
2019-04-25T17:07:13.338Z,970.6
2019-04-25T17:08:19.548Z,970.6
2019-04-25T17:09:20.898Z,970.6
2019-04-25T17:10:24.420Z,970.3
2019-04-25T17:11:25.856Z,970.5
2019-04-25T17:12:27.152Z,970.6
2019-04-25T17:13:29.461Z,970.6
2019-04-25T17:14:33.818Z,970.3
2019-04-25T17:15:36.171Z,970.6
2019-04-25T17:16:40.288Z,970.5
2019-04-25T17:17:41.649Z,970.6
2019-04-25T17:18:47.060Z,970.6
2019-04-25T17:19:48.631Z,970.5
2019-04-25T17:20:50.784Z,970.5
2019-04-25T17:21:52.219Z,970.5
2019-04-25T17:22:53.766Z,970.6
2019-04-25T17:23:55.075Z,970.6
2019-04-25T17:24:56.373Z,970.5
2019-04-25T17:25:59.291Z,970.5
2019-04-25T17:27:02.856Z,970.5
2019-04-25T17:28:05.716Z,970.5
2019-04-25T17:29:09.474Z,970.5
2019-04-25T17:30:16.008Z,970.5
2019-04-25T17:31:17.454Z,970.5
2019-04-25T17:32:18.872Z,970.5
2019-04-25T17:33:21.548Z,970.5
2019-04-25T17:34:27.254Z,970.6
2019-04-25T17:35:33.537Z,970.6
2019-04-25T17:36:37.151Z,970.5
2019-04-25T17:37:39.319Z,970.6
2019-04-25T17:38:44.580Z,970.4
2019-04-25T17:39:50.229Z,970.5
2019-04-25T17:40:51.671Z,970.5
2019-04-25T17:41:54.224Z,970.5
2019-04-25T17:42:55.566Z,970.5
2019-04-25T17:43:56.855Z,970.4
2019-04-25T17:45:00.493Z,970.5
2019-04-25T17:46:01.865Z,970.4
2019-04-25T17:47:07.438Z,970.3
2019-04-25T17:48:08.976Z,970.3
2019-04-25T17:49:22.865Z,970.4
2019-04-25T17:50:24.871Z,970.3
2019-04-25T17:51:30.075Z,970.3
2019-04-25T17:52:34.575Z,970.3
2019-04-25T17:53:41.318Z,970.3
2019-04-25T17:54:43.828Z,970.2
2019-04-25T17:55:47.660Z,970.3
2019-04-25T17:56:49.101Z,970.3
2019-04-25T17:57:50.942Z,970.3
2019-04-25T17:58:53.593Z,970.3
2019-04-25T18:00:09.145Z,970.3
2019-04-25T18:01:10.807Z,970.2
2019-04-25T18:02:17.079Z,970.2
2019-04-25T18:03:18.843Z,970.1
2019-04-25T18:04:27.271Z,970.2
2019-04-25T18:06:20.714Z,970.2
2019-04-25T18:07:26.844Z,970.2
2019-04-25T18:08:31.170Z,970.3
2019-04-25T18:09:35.471Z,970.2
2019-04-25T18:10:39.147Z,970.2
2019-04-25T18:11:42.067Z,970.2
2019-04-25T18:12:45.711Z,970.1
2019-04-25T18:13:47.373Z,970.1
2019-04-25T18:14:48.813Z,970.1
2019-04-25T18:15:50.244Z,970.1
2019-04-25T18:16:51.582Z,970
2019-04-25T18:17:57.495Z,970
2019-04-25T18:18:58.915Z,970
2019-04-25T18:20:03.304Z,970.1
2019-04-25T18:21:05.434Z,970
2019-04-25T18:22:06.756Z,970
2019-04-25T18:23:11.381Z,970.1
2019-04-25T18:24:12.836Z,970.1
2019-04-25T18:25:14.181Z,970
2019-04-25T18:26:26.443Z,970
2019-04-25T18:27:27.843Z,970
2019-04-25T18:28:30.625Z,970.1
2019-04-25T18:29:32.305Z,970.1
2019-04-25T18:30:33.647Z,970
2019-04-25T18:31:36.300Z,970
2019-04-25T18:32:37.763Z,970
2019-04-25T18:33:44.739Z,970
2019-04-25T18:34:48.006Z,970
2019-04-25T18:35:49.294Z,970
2019-04-25T18:36:50.667Z,970.1
2019-04-25T18:37:52.060Z,970.1
2019-04-25T18:38:54.692Z,970.1
2019-04-25T18:39:57.016Z,970.1
2019-04-25T18:40:58.352Z,970.2
2019-04-25T18:41:59.653Z,970.2
2019-04-25T18:43:03.149Z,970.2
2019-04-25T18:44:04.453Z,970.2
2019-04-25T18:45:05.926Z,970.2
2019-04-25T18:46:08.231Z,970.2
2019-04-25T18:47:11.677Z,970.2
2019-04-25T18:48:13.113Z,970.3
2019-04-25T18:49:14.407Z,970.2
2019-04-25T18:50:18.640Z,970.3
2019-04-25T18:51:20.319Z,970.2
2019-04-25T18:52:21.648Z,970.3
2019-04-25T18:53:23.021Z,970.4
2019-04-25T18:54:30.757Z,970.3
2019-04-25T18:55:38.844Z,970.3
2019-04-25T18:56:41.864Z,970.3
2019-04-25T18:57:45.467Z,970.2
2019-04-25T18:58:46.945Z,970
2019-04-25T18:59:49.093Z,970.3
2019-04-25T19:00:50.459Z,970.3
2019-04-25T19:01:52.343Z,970.3
2019-04-25T19:02:57.388Z,970.4
2019-04-25T19:03:59.049Z,970.3
2019-04-25T19:05:00.817Z,970.3
2019-04-25T19:06:02.269Z,970.3
2019-04-25T19:07:03.683Z,970.4
2019-04-25T19:08:05.367Z,970.3
2019-04-25T19:09:06.679Z,970.3
2019-04-25T19:10:09.431Z,970.3
2019-04-25T19:11:11.324Z,970.3
2019-04-25T19:12:12.777Z,970.2
2019-04-25T19:13:15.210Z,970.3
2019-04-25T19:14:16.805Z,970.1
2019-04-25T19:15:19.469Z,970.3
2019-04-25T19:16:20.831Z,970.2
2019-04-25T19:17:23.919Z,970.3
2019-04-25T19:18:25.253Z,970.3
2019-04-25T19:19:26.695Z,970.3
2019-04-25T19:20:30.555Z,970.3
2019-04-25T19:21:34.003Z,970.3
2019-04-25T19:22:35.661Z,970.3
2019-04-25T19:23:48.094Z,970.3
2019-04-25T19:24:49.420Z,970.3
2019-04-25T19:25:55.691Z,970.4
2019-04-25T19:27:00.027Z,970.4
2019-04-25T19:28:02.579Z,970.4
2019-04-25T19:29:03.928Z,970.4
2019-04-25T19:30:07.398Z,970.4
2019-04-25T19:31:11.183Z,970.4
2019-04-25T19:32:12.634Z,970.4
2019-04-25T19:33:14.039Z,970.4
2019-04-25T19:34:16.569Z,970.4
2019-04-25T19:35:30.854Z,970.4
2019-04-25T19:36:49.065Z,970.2
2019-04-25T19:37:53.351Z,970.4
2019-04-25T19:43:42.981Z,970.4
2019-04-25T19:44:47.166Z,970.5
2019-04-25T19:45:49.689Z,970.5
2019-04-25T19:46:52.244Z,970.5
2019-04-25T19:47:54.015Z,970.4
2019-04-25T19:49:07.556Z,970.5
2019-04-25T19:50:08.956Z,970.5
2019-04-25T19:51:17.360Z,970.5
2019-04-25T19:52:20.439Z,970.5
2019-04-25T19:53:27.434Z,970.3
2019-04-25T19:54:31.762Z,970.4
2019-04-25T19:55:36.563Z,970.5
2019-04-25T19:57:01.104Z,970.4
2019-04-25T19:58:03.542Z,970.5
2019-04-25T19:59:05.303Z,970.5
2019-04-25T20:00:07.631Z,970.3
2019-04-25T20:01:08.885Z,970.5
2019-04-25T20:02:13.968Z,970.5
2019-04-25T20:04:32.419Z,970.6
2019-04-25T20:05:35.397Z,970.6
2019-04-25T20:06:36.671Z,970.5
2019-04-25T20:07:37.940Z,970.4
2019-04-25T20:08:43.405Z,970.5
2019-04-25T20:09:47.780Z,970.5
2019-04-25T20:10:51.411Z,970.5
2019-04-25T20:11:54.327Z,970.5
2019-04-25T20:13:01.427Z,970.5
2019-04-25T20:14:03.280Z,970.5
2019-04-25T20:15:04.633Z,970.5
2019-04-25T20:16:06.038Z,970.6
2019-04-25T20:17:07.581Z,970.5
2019-04-25T20:18:08.965Z,970.5
2019-04-25T20:19:12.555Z,970.5
2019-04-25T20:20:16.345Z,970.5
2019-04-25T20:21:20.625Z,970.4
2019-04-25T20:22:21.894Z,970.5
2019-04-25T20:23:23.337Z,970.5
2019-04-25T20:24:24.671Z,970.5
2019-04-25T20:25:26.139Z,970.5
2019-04-25T20:26:27.439Z,970.5
2019-04-25T20:27:32.646Z,970.5
2019-04-25T20:28:33.907Z,970.4
2019-04-25T20:29:35.376Z,970.5
2019-04-25T20:30:36.628Z,970.5
2019-04-25T20:31:38.313Z,970.4
2019-04-25T20:32:39.684Z,970.4
2019-04-25T20:33:41.041Z,970.4
2019-04-25T20:34:42.454Z,970.4
2019-04-25T20:35:44.788Z,970.4
2019-04-25T20:36:55.781Z,970.4
2019-04-25T20:37:57.201Z,970.4
2019-04-25T20:38:59.535Z,970.5
2019-04-25T20:40:00.842Z,970.4
2019-04-25T20:44:33.037Z,970.5
2019-04-25T20:45:34.889Z,970.4
2019-04-25T20:46:36.585Z,970.4
2019-04-25T20:47:40.400Z,970.4
2019-04-25T20:48:45.751Z,970.4
2019-04-25T20:49:48.760Z,970.4
2019-04-25T20:50:51.003Z,970.5
2019-04-25T20:51:53.303Z,970.4
2019-04-25T20:52:56.235Z,970.4
2019-04-25T20:53:57.872Z,970.4
2019-04-25T20:54:59.251Z,970.4
2019-04-25T20:56:00.563Z,970.4
2019-04-25T20:57:01.943Z,970.4
2019-04-25T20:58:04.828Z,970.4
2019-04-25T20:59:07.772Z,970.4
2019-04-25T21:00:09.172Z,970.2
2019-04-25T21:01:13.311Z,970.4
2019-04-25T21:02:14.709Z,970.4
2019-04-25T21:03:16.967Z,970.3
2019-04-25T21:04:18.604Z,970.3
2019-04-25T21:05:20.242Z,970.4
2019-04-25T21:06:26.122Z,970.4
2019-04-25T21:07:27.567Z,970.3
2019-04-25T21:08:34.133Z,970.3
2019-04-25T21:09:35.544Z,970.4
2019-04-25T21:10:37.271Z,970.4
2019-04-25T21:11:38.578Z,970.4
2019-04-25T21:12:41.299Z,970.3
2019-04-25T21:13:42.617Z,970.4
2019-04-25T21:14:44.656Z,970.4
2019-04-25T21:15:46.013Z,970.3
2019-04-25T21:16:47.644Z,970.4
2019-04-25T21:17:49.836Z,970.4
2019-04-25T21:18:51.765Z,970.4
2019-04-25T21:19:54.239Z,970.4
2019-04-25T21:20:58.968Z,970.4
2019-04-25T21:22:01.049Z,970.4
2019-04-25T21:23:05.291Z,970.4
2019-04-25T21:24:06.831Z,970.4
2019-04-25T21:25:10.163Z,970.4
2019-04-25T21:26:11.567Z,970.3
2019-04-25T21:27:15.172Z,970.4
2019-04-25T21:28:18.324Z,970.4
2019-04-25T21:29:19.979Z,970.4
2019-04-25T21:30:21.811Z,970.3
2019-04-25T21:31:23.223Z,970.4
2019-04-25T21:32:24.795Z,970.4
2019-04-25T21:33:30.681Z,970.4
2019-04-25T21:34:33.735Z,970.3
2019-04-25T21:35:36.023Z,970.3
2019-04-25T21:36:51.242Z,970.4
2019-04-25T21:37:57.461Z,970.3
2019-04-25T21:39:09.633Z,970.3
2019-04-25T21:40:17.337Z,970.3
2019-04-25T21:41:21.126Z,970.2
2019-04-25T21:42:23.358Z,970.3
2019-04-25T21:43:28.668Z,970.2
2019-04-25T21:44:31.808Z,970.2
2019-04-25T21:45:33.401Z,970.1
2019-04-25T21:46:35.421Z,970.3
2019-04-25T21:47:37.269Z,970.3
2019-04-25T21:48:41.609Z,970.3
2019-04-25T21:49:42.930Z,970.3
2019-04-25T21:50:44.317Z,970.4
2019-04-25T21:51:46.912Z,970.4
2019-04-25T21:52:48.677Z,970.5
2019-04-25T21:53:50.541Z,970.6
2019-04-25T21:54:55.527Z,970.7
2019-04-25T21:55:58.536Z,970.8
2019-04-25T21:57:01.637Z,970.9
2019-04-25T21:58:04.210Z,971
2019-04-25T21:59:05.779Z,971.1
2019-04-25T22:00:09.918Z,971.2
2019-04-25T22:01:11.894Z,971.2
2019-04-25T22:02:13.564Z,971.1
2019-04-25T22:03:15.467Z,971.1
2019-04-25T22:04:19.287Z,971.1
2019-04-25T22:05:21.149Z,971.2
2019-04-25T22:06:22.695Z,971.3
2019-04-25T22:07:24.349Z,971.3
2019-04-25T22:08:25.921Z,971.3
2019-04-25T22:09:27.505Z,971.4
2019-04-25T22:10:30.363Z,971.5
2019-04-25T22:11:31.940Z,971.5
2019-04-25T22:12:33.978Z,971.4
2019-04-25T22:13:36.016Z,971.4
2019-04-25T22:14:37.766Z,971.5
2019-04-25T22:15:42.213Z,971.5
2019-04-25T22:16:52.892Z,971.6
2019-04-25T22:17:58.590Z,971.6
2019-04-25T22:19:02.008Z,971.6
2019-04-25T22:20:04.934Z,971.6
2019-04-25T22:21:07.592Z,971.5
2019-04-25T22:22:09.276Z,971.6
2019-04-25T22:23:10.901Z,971.6
2019-04-25T22:24:17.145Z,971.8
2019-04-25T22:25:19.295Z,971.6
2019-04-25T22:26:30.376Z,971.8
2019-04-25T22:27:31.959Z,971.9
2019-04-25T22:28:33.852Z,971.6
2019-04-25T22:29:35.576Z,971.7
2019-04-25T22:30:37.224Z,971.6
2019-04-25T22:31:38.527Z,971.3
2019-04-25T22:32:39.832Z,971.7
2019-04-25T22:33:41.424Z,971.8
2019-04-25T22:34:53.454Z,971.9
2019-04-25T22:35:56.406Z,971.8
2019-04-25T22:37:00.662Z,971.8
2019-04-25T22:38:02.899Z,971.8
2019-04-25T22:39:05.278Z,971.8
2019-04-25T22:40:08.130Z,971.8
2019-04-25T22:41:09.714Z,971.7
2019-04-25T22:42:13.066Z,971.9
2019-04-25T22:43:14.712Z,971.9
2019-04-25T22:44:16.761Z,971.7
2019-04-25T22:45:18.992Z,971.9
2019-04-25T22:46:29.982Z,971.8
2019-04-25T22:47:31.689Z,971.7
2019-04-25T22:48:32.984Z,971.9
2019-04-25T22:49:34.280Z,971.9
2019-04-25T22:50:38.402Z,971.9
2019-04-25T22:51:40.052Z,971.8
2019-04-25T22:52:41.734Z,971.9
2019-04-25T22:53:43.301Z,971.9
2019-04-25T22:54:46.597Z,971.9
2019-04-25T22:55:49.768Z,971.8
2019-04-25T22:56:51.272Z,972
2019-04-25T22:57:52.914Z,972
2019-04-25T22:58:54.444Z,972
2019-04-25T22:59:56.022Z,972
2019-04-25T23:00:57.384Z,972.1
2019-04-25T23:01:59.092Z,971.9
2019-04-25T23:03:03.359Z,972
2019-04-25T23:04:08.011Z,972
2019-04-25T23:05:16.158Z,971.9
2019-04-25T23:06:17.706Z,972
2019-04-25T23:07:19.304Z,972
2019-04-25T23:08:20.881Z,972
2019-04-25T23:09:22.427Z,972
2019-04-25T23:10:24.242Z,971.6
2019-04-25T23:11:25.755Z,971.9
2019-04-25T23:12:27.242Z,972
2019-04-25T23:13:28.842Z,971.9
2019-04-25T23:14:30.392Z,972
2019-04-25T23:15:32.158Z,972